Pays
Station

 

Conditions  météo  pour  Kairouan  -  Tunisie    Tunisie

  
16 °C
    
 
 

METAR pour Kairouan :

DTTK 191100Z 24002KT CAVOK 16/07 Q1024

 

Voici le bulletin pour Kairouan - Tunisie.
 
Le bulletin a été fait il y a 55 minutes, à 11:00 UTC .
Le vent soufflait à la vitesse de 1.0 mètres par seconde de Ouest/Sud-ouest (240°).
 
La température était de 16 °C, avec un point de rosée à 7 °C.
La pression atmosphérique était de 1024 hPa.
L'humidité relative était de 55.1%.
 
Il y avait pas de nuages en-dessous de 1500 mètres et pas de cumulonimbus.
 
La visibilité globale était de supérieure à 10 kilomètres.
 

 
 
 

Pays :   A   B   C   D   E   F   G   H   I   J   K   L   M   N   O   P   Q   R   S   T   U   V   W   Y   Z

 

Partenaires :  Info Météo avec Met'info
Météo Marine avec MeteoMarine.net
Infos Site  |  Infos Légales  |  Crédits  |  Confidentialité
Contactez-nous  |  Ajouter aux favoris
© 2013-2018 METAR - Tous droits réservés